Columbus, Michigan
Current Conditions -  °F | °C
As of 12:17 PM on Wednesday 26 Nov 2014 (Local Time) from KPHN Reporting Station
Overcast Overcast  
Wind Chill: 32°   Ceiling: 3300
Heat Index: 32°   Visibility: 10mi
Dew Point: 23°   Wind: 0mph
Humidity: 69%   Direction: NA
Pressure: 30.14"   Gusts: NA
Location:  42.85°N, 82.67°W
Report Text: KPHN 261717Z AUTO 00000KT 10SM OVC033 00/M05 A3014 RMK AO2
Loading
Personal Weather Stations






























Interactive Weather Map New forecast layout! Learn more

10-Day Weather Forecast

Advertisements
Track Severe Weather on mobile